Weather observations for the past three days for
Platteville Municipal Airport
Metric (Imperial)
Date Time (cdt) Wind (kph) Vis. (km) Weather Sky Cond. Temperature (ºC) Relative Humidity Wind Chill (°C) Heat Index (°C) Pressure Precipitation (cm)
Air Dwpt 6 hour altimeter (cm) sea level (mb) 1 hr 3 hr 6 hr
Max. Min.
08 14:35 SW 13 16.09 Fair CLR 20.2 -5 18% 75.54 0.0
08 14:15 W 9 16.09 Fair CLR 19.9 -5.7 17% 75.57 0.0
08 13:55 SW 20 G 31 16.09 Fair CLR 19.8 -6.2 17% 75.57 0.0
08 13:35 S 11 G 31 16.09 Fair CLR 19.2 -7.4 16% 75.62 0.0
08 13:15 SW 22 G 30 16.09 Fair CLR 19.1 -6.5 17% 75.62 0.0
08 12:35 W 11 16.09 Fair CLR 18.5 -6 18% 75.67 0.0
08 12:15 W 9 16.09 Fair CLR 17.9 -4.7 21% 75.69 0.0
08 11:55 SW 7 16.09 Fair CLR 17.9 -5.4 20% 75.69 0.0
08 11:35 S 6 16.09 Fair CLR 17.3 -6.6 19% 75.72 0.0
08 11:15 S 15 16.09 Fair CLR 17 -5.6 21% 75.74 0.0
08 10:55 S 11 16.09 Fair CLR 16.6 -4.6 23% 75.74 0.0
08 10:35 S 9 16.09 Fair CLR 16.1 -3.1 27% 75.77 0.0
08 10:15 S 15 16.09 Fair CLR 15.4 -3.8 27% 75.77 0.0
08 09:55 S 13 16.09 Fair CLR 15.3 -3 28% 75.79 0.0
08 09:35 S 13 16.09 Fair CLR 13.9 -3.6 30% 75.82 0.0
08 09:15 SE 13 16.09 Fair CLR 13.7 -3.9 29% 75.79 0.0
08 08:35 SE 13 16.09 Fair CLR 11.3 -3.2 36% 75.79 0.0
08 08:15 SE 13 16.09 Fair CLR 10.9 -2.3 40% 75.79 0.0
08 07:55 SE 13 16.09 Fair CLR 9.5 -3 42% 8 75.79 0.0
08 07:35 E 11 16.09 Fair CLR 8.4 -2.6 46% 7 75.79 0.0
08 07:15 E 11 16.09 Fair CLR 7.1 -3.1 49% 5 75.82 0.0
08 06:55 E 11 16.09 Fair CLR 6 -3.8 6.5 4 50% 4 75.79 0.0
08 06:35 E 13 16.09 Fair CLR 5.1 -4.6 50% 3 75.79 0.0
08 06:15 E 11 16.09 Fair CLR 4.2 -5 52% 2 75.79 0.0
08 05:55 E 15 16.09 Fair CLR 4.3 -5.4 50% 1 75.77 0.0
08 05:35 E 15 16.09 Fair CLR 4.6 -5.8 47% 2 75.77 0.0
08 05:15 E 15 16.09 Fair CLR 4.5 -6 47% 2 75.77 0.0
08 04:55 E 15 16.09 Fair CLR 4.4 -6.1 47% 1 75.79 0.0
08 04:35 E 15 16.09 Fair CLR 4.4 -6.3 46% 1 75.79 0.0
08 04:15 E 15 16.09 Fair CLR 5.2 -6.6 43% 2 75.79 0.0
08 03:55 E 15 16.09 Fair CLR 5.2 -6.6 43% 2 75.82 0.0
08 03:35 E 15 16.09 Fair CLR 5.2 -6.7 42% 2 75.82 0.0
08 03:15 SE 15 16.09 Fair CLR 4.6 -6.2 46% 2 75.82 0.0
08 02:55 E 15 16.09 Fair CLR 4.7 -6.4 45% 2 75.82 0.0
08 02:35 E 13 16.09 Fair CLR 5 -6.8 43% 2 75.84 0.0
08 02:15 E 13 16.09 Fair CLR 5.9 -7.5 38% 3 75.84 0.0
08 01:55 E 13 16.09 Fair CLR 5.9 -6.9 40% 3 75.87 0.0
08 01:35 E 13 16.09 Fair CLR 6.5 -7.3 37% 4 75.87 0.0
08 01:15 E 11 16.09 Fair CLR 5.7 -6.5 41% 4 75.9 0.0
08 00:55 Calm 16.09 Fair CLR 4.8 -5.8 15.6 4.8 47% 75.9 0.0
08 00:35 Calm 16.09 Fair CLR 6 -6.7 40% 75.87 0.0
08 00:15 Calm 16.09 Fair CLR 6.6 -7.1 37% 75.9 0.0
07 23:55 Calm 16.09 Fair CLR 7.8 -8 32% 75.9 0.0
07 23:35 Calm 16.09 Fair CLR 7 -7.5 35% 75.9 0.0
07 23:15 Calm 16.09 Fair CLR 7.5 -7.6 34% 75.9 0.0
07 22:55 Calm 16.09 Fair CLR 6.6 -7 38% 75.87 0.0
07 22:35 Calm 16.09 Fair CLR 7.8 -7 35% 75.87 0.0
07 22:15 Calm 16.09 Fair CLR 7.2 -6.9 36% 75.84 0.0
07 21:55 Calm 16.09 Fair CLR 6.9 -6.6 38% 75.84 0.0
07 21:35 Calm 16.09 Fair CLR 7.1 -6.8 37% 75.82 0.0
07 21:15 Calm 16.09 Fair CLR 9.6 -6.8 31% 75.82 0.0
07 20:55 Calm 16.09 Fair CLR 9.6 -7.3 30% 75.77 0.0
07 20:35 Calm 16.09 Fair CLR 11.9 -7.6 25% 75.74 0.0
07 20:15 Calm 16.09 Fair CLR 12.9 -8.1 23% 75.74 0.0
07 19:55 Calm 16.09 Fair CLR 13 -7.3 24% 75.72 0.0
07 19:35 NW 9 16.09 Fair CLR 14 -7.2 22% 75.72 0.0
07 19:15 NW 15 16.09 Fair CLR 15.2 -9 18% 75.72 0.0
07 18:55 W 17 16.09 Fair CLR 15.7 -8.9 17.9 14.5 18% 75.72 0.0
07 18:35 W 17 16.09 Fair CLR 16 -8.7 18% 75.72 0.0
07 18:15 NW 19 16.09 Fair CLR 16.3 -8.2 18% 75.72 0.0
07 17:55 W 22 G 39 16.09 Fair CLR 16.5 -8.5 17% 75.72 0.0
07 17:35 W 22 G 33 16.09 Fair CLR 16.5 -8.5 17% 75.74 0.0
07 17:15 W 19 G 35 16.09 Fair CLR 16.6 -8.3 17% 75.74 0.0
07 16:55 NW 19 G 37 16.09 Fair CLR 17 -8.3 17% 75.72 0.0
07 16:35 W 22 G 31 16.09 Fair CLR 16.7 -7.9 18% 75.72 0.0
07 16:15 NW 20 G 30 16.09 Partly Cloudy SCT075 16.7 -7.6 18% 75.72 0.0
07 15:55 NW 24 G 52 16.09 Partly Cloudy SCT075 16.8 -7.1 19% 75.72 0.0
07 15:35 W 30 G 39 16.09 Fair CLR 17.3 -6.7 19% 75.72 0.0
07 15:15 W 20 G 30 16.09 Partly Cloudy SCT080 SCT085 17 -5.4 21% 75.74 0.0
07 14:55 W 22 G 30 16.09 Partly Cloudy SCT080 SCT090 16.9 -5.1 22% 75.74 0.0
07 14:35 W 17 G 31 16.09 Partly Cloudy SCT065 SCT080 16.4 -5.5 22% 75.74 0.0
07 14:15 W 13 G 26 16.09 Mostly Cloudy SCT045 SCT060 BKN085 16 -4.6 24% 75.77 0.0
07 13:55 W 22 G 31 16.09 Mostly Cloudy SCT060 SCT070 BKN110 15.1 -5.3 24% 75.77 0.0
07 13:35 W 24 G 31 16.09 Mostly Cloudy SCT070 BKN080 BKN120 16 -4.2 25% 75.77 0.0
07 13:15 SW 9 16.09 Partly Cloudy SCT060 SCT075 SCT110 15.4 -4 26% 75.77 0.0
07 12:55 SW 15 16.09 Partly Cloudy SCT060 15.4 -3 15.4 2.2 28% 75.82 0.0
07 12:35 W 9 16.09 Fair CLR 14.9 -3.1 29% 75.82 0.0
07 12:15 SW 17 16.09 Fair CLR 14.3 -2.1 32% 75.84 0.0
07 11:55 S 6 G 15 16.09 Fair CLR 13.4 -2.6 33% 75.87 0.0
07 11:35 SW 19 16.09 Partly Cloudy SCT090 13.3 -3.5 31% 75.9 0.0
07 11:15 SW 24 G 35 16.09 Partly Cloudy SCT085 13.5 -4.6 28% 75.9 0.0
07 10:55 SW 20 G 30 16.09 Partly Cloudy SCT085 13.2 -4.2 30% 75.9 0.0
07 10:35 S 19 G 26 16.09 Partly Cloudy SCT095 11.6 -5 31% 75.9 0.0
07 10:15 S 17 G 28 16.09 Partly Cloudy SCT095 11.5 -5.6 30% 75.92 0.0
07 09:55 S 17 16.09 Partly Cloudy SCT065 SCT075 SCT095 10.7 -5 33% 75.95 0.0
07 09:35 S 17 16.09 Mostly Cloudy SCT065 SCT075 BKN095 9.4 -4.8 37% 7 76 0.0
07 09:15 S 17 16.09 Partly Cloudy SCT085 9.4 -4.8 37% 7 76 0.0
07 08:55 SE 28 G 35 16.09 Partly Cloudy SCT085 8 -4.8 40% 4 76 0.0
07 08:35 S 22 G 30 16.09 Partly Cloudy SCT085 7.4 -4.9 42% 4 76 0.0
07 08:15 SE 19 16.09 Partly Cloudy SCT042 SCT050 SCT060 5.6 -3.3 53% 2 76.05 0.0
07 07:55 SE 13 16.09 Mostly Cloudy SCT042 SCT055 BKN090 5 -2.7 58% 2 76.07 0.0
07 07:35 SE 11 16.09 Partly Cloudy SCT075 SCT090 3.6 -1.9 68% 1 76.07 0.0
07 07:15 SE 11 16.09 Mostly Cloudy SCT070 BKN080 3.3 -2.9 64% 1 76.1 0.0
07 06:55 S 9 16.09 Mostly Cloudy SCT070 BKN080 BKN110 2.2 -3.1 2.7 0 68% -0 76.1 0.0
07 06:35 Calm 11.27 Mostly Cloudy SCT085 SCT090 BKN110 1.4 -3.2 72% 76.1 0.0
07 06:15 Calm 11.27 Mostly Cloudy SCT055 SCT065 BKN090 1.2 -3.2 73% 76.1 0.0
07 05:55 Calm 16.09 Overcast SCT065 BKN080 OVC090 1 -4 70% 76.12 0.0
07 05:35 Calm 16.09 Partly Cloudy SCT085 1 -4.5 67% 76.12 0.0
07 05:15 Calm 16.09 Mostly Cloudy BKN085 0.6 -5 66% 76.1 0.0
07 04:55 Calm 16.09 Partly Cloudy SCT085 0.3 -5.2 67% 76.12 0.0
07 04:35 Calm 16.09 Fair CLR 0 -5.5 67% 76.12 0.0
07 04:15 Calm 16.09 Fair CLR 0.1 -5.5 66% 76.12 0.0
07 03:55 Calm 16.09 Fair CLR 0.1 -5.4 67% 76.12 0.0
07 03:35 Calm 16.09 Fair CLR 0 -5.2 68% 76.12 0.0
07 03:15 SE 9 16.09 Fair CLR 0.1 -5.4 67% -3 76.12 0.0
07 02:55 Calm 16.09 Fair CLR 0.1 -5.5 66% 76.12 0.0
07 02:35 Calm 16.09 Fair CLR 0.2 -5.4 66% 76.12 0.0
07 02:15 SE 9 16.09 Fair CLR 0.6 -5.5 64% -2 76.12 0.0
07 01:55 Calm 16.09 Fair CLR 1.5 -6.2 57% 76.15 0.0
07 01:35 Calm 16.09 Fair CLR 1 -6 60% 76.15 0.0
07 01:15 Calm 16.09 Fair CLR 1.6 -6.6 55% 76.17 0.0
07 00:55 Calm 16.09 Fair CLR 2.7 -6.7 9 2.4 50% 76.2 0.0
07 00:35 Calm 16.09 Fair CLR 2.9 -6.8 49% 76.2 0.0
07 00:15 Calm 16.09 Fair CLR 3.4 -7 47% 76.2 0.0
06 23:55 Calm 16.09 Fair CLR 3.4 -6.9 47% 76.2 0.0
06 23:35 Calm 16.09 Fair CLR 3.5 -6.6 48% 76.2 0.0
06 23:15 Calm 16.09 Fair CLR 3.2 -6.3 50% 76.2 0.0
06 22:55 Calm 16.09 Fair CLR 3.6 -6.4 48% 76.23 0.0
06 22:35 Calm 16.09 Fair CLR 3.5 -6.3 49% 76.23 0.0
06 22:15 Calm 16.09 Fair CLR 4 -6.3 47% 76.23 0.0
06 21:35 Calm 16.09 Fair CLR 3.2 -5.9 52% 76.23 0.0
06 21:15 Calm 16.09 Fair CLR 4.8 -6.5 44% 76.23 0.0
06 20:55 NW 7 16.09 Fair CLR 5 -6.9 42% 4 76.2 0.0
06 20:35 NW 9 16.09 Fair CLR 5.3 -7 41% 3 76.2 0.0
06 20:15 NW 9 16.09 Fair CLR 6 -7.5 38% 4 76.17 0.0
06 19:55 NW 17 16.09 Fair CLR 7 -7.7 35% 4 76.17 0.0
06 19:35 NW 15 16.09 Fair CLR 7.8 -7.8 33% 6 76.17 0.0
06 19:15 W 17 16.09 Partly Cloudy SCT060 8.5 -7.6 31% 6 76.17 0.0
06 18:55 NW 22 G 30 16.09 Mostly Cloudy BKN060 9 -7.7 10.7 8.8 30% 6 76.15 0.0
06 18:35 W 19 16.09 Mostly Cloudy BKN060 9.4 -7.4 30% 7 76.15 0.0
06 18:15 W 15 16.09 Mostly Cloudy BKN060 9 -6.8 32% 7 76.17 0.0
06 17:55 NW 17 16.09 Overcast OVC060 9.1 -7.3 31% 7 76.17 0.0
06 17:35 NW 20 G 30 16.09 Overcast OVC060 9 -7.5 31% 6 76.17 0.0
06 16:55 W 20 G 31 16.09 Overcast OVC060 9.4 -7.4 30% 7 76.17 0.0
06 16:35 W 30 G 35 16.09 Overcast OVC060 9.1 -7.9 30% 6 76.17 0.0
06 16:15 W 28 G 37 16.09 Mostly Cloudy BKN060 10.5 -7.1 29% 76.17 0.0
06 15:55 NW 26 G 44 16.09 Mostly Cloudy BKN060 BKN070 10.5 -7.4 28% 76.17 0.0
06 15:35 NW 30 G 37 16.09 Overcast OVC060 9.7 -7.5 29% 7 76.17 0.0
06 15:15 NW 22 G 39 16.09 Overcast OVC060 10.3 -6.8 30% 76.2 0.0
06 14:55 W 28 G 35 16.09 Overcast OVC060 9.3 -7.7 30% 6 76.2 0.0
06 14:35 W 28 G 52 16.09 Overcast OVC050 9.3 -7.2 31% 6 76.2 0.0
06 14:15 NW 28 G 41 16.09 Mostly Cloudy BKN050 9.8 -7.1 30% 7 76.2 0.0
06 13:55 W 33 G 48 16.09 Mostly Cloudy and Breezy BKN050 10.3 -6.3 31% 76.17 0.0
06 13:35 NW 28 G 43 16.09 Mostly Cloudy BKN050 9.8 -7.3 30% 7 76.17 0.0
06 13:15 W 22 G 41 16.09 Mostly Cloudy BKN050 9.9 -6.5 31% 7 76.17 0.0
06 12:55 NW 28 G 37 16.09 Mostly Cloudy BKN050 9.4 -6.9 10.4 2.7 31% 6 76.17 0.0
06 12:35 NW 20 G 37 16.09 Mostly Cloudy BKN050 9.2 -6.5 33% 7 76.17 0.0
06 12:15 W 22 G 43 16.09 Mostly Cloudy BKN050 9.6 -6.5 32% 7 76.17 0.0
06 11:55 W 20 G 33 16.09 Mostly Cloudy BKN048 9 -6.5 33% 6 76.17 0.0
06 11:35 W 26 G 37 16.09 Overcast OVC048 8.5 -6.2 35% 5 76.17 0.0
06 11:15 W 24 G 33 16.09 Mostly Cloudy BKN046 BKN055 8.9 -6.3 34% 6 76.17 0.0
06 10:55 W 24 G 31 16.09 Mostly Cloudy BKN046 8.6 -5.3 37% 6 76.17 0.0
06 10:35 W 20 16.09 Overcast BKN044 OVC050 7.9 -5.6 38% 5 76.17 0.0
06 10:15 NW 15 16.09 Mostly Cloudy BKN042 BKN049 7.5 -5.8 39% 5 76.17 0.0
06 09:55 NW 17 16.09 Partly Cloudy SCT040 7.6 -5.2 40% 5 76.15 0.0
06 09:35 W 17 16.09 Fair CLR 7.9 -3.9 43% 5 76.17 0.0
06 09:15 NW 13 16.09 Fair CLR 7.4 -3.2 47% 5 76.15 0.0
06 08:55 W 13 16.09 Fair CLR 7 -2.8 50% 5 76.15 0.0
06 08:35 NW 13 16.09 Fair CLR 6.1 -3 52% 4 76.12 0.0
06 08:15 NW 11 16.09 Fair CLR 5.2 -2.6 57% 3 76.12 0.0
06 07:55 NW 11 16.09 Fair CLR 4.1 -2.7 62% 2 76.1 0.0
06 07:15 W 9 16.09 Fair CLR 3.2 -2.8 65% 1 76.1 0.0
06 06:55 Calm 16.09 Fair CLR 2.6 -3 6 0.8 67% 76.05 0.0
06 06:35 Calm 16.09 Fair CLR 1.8 -3.2 70% 76.02 0.0
06 05:55 Calm 16.09 Fair CLR 1 -3.9 70% 76 0.0
06 05:35 Calm 16.09 Fair CLR 1.5 -4 67% 76 0.0
06 05:15 W 9 16.09 Fair CLR 1.5 -4 67% -1 75.97 0.0
06 04:55 W 6 16.09 Fair CLR 1.5 -4.2 66% 75.97 0.0
06 04:35 W 9 16.09 Fair CLR 1.5 -4 67% -1 75.95 0.0
06 04:15 W 7 16.09 Fair CLR 1.5 -4 67% -0 75.97 0.0
06 03:55 W 9 16.09 Fair CLR 2.2 -3.7 65% -0 75.97 0.0
06 03:35 Calm 16.09 Fair CLR 1.6 -3.1 71% 75.97 0.0
06 03:15 Calm 16.09 Fair CLR 2.1 -4.3 63% 75.97 0.0
06 02:55 Calm 16.09 Fair CLR 3 -5.1 56% 75.95 0.0
06 02:35 Calm 16.09 Fair CLR 4 -5.2 52% 75.92 0.0
06 02:15 Calm 16.09 Fair CLR 4.6 -5.8 47% 75.92 0.0
06 01:55 Calm 16.09 Fair CLR 5.2 -6 45% 75.92 0.0
06 01:35 Calm 16.09 Fair CLR 5.5 -6.2 43% 75.92 0.0
06 01:15 Calm 16.09 Fair CLR 5.6 -6 43% 75.92 0.0
06 00:55 Calm 16.09 Fair CLR 5.6 -5.6 11.5 5.5 45% 75.95 0.0
06 00:35 Calm 16.09 Fair CLR 6 -5.4 44% 75.92 0.0
06 00:15 Calm 16.09 Fair CLR 6 -5.5 44% 75.92 0.0
05 23:55 Calm 16.09 Fair CLR 6 -5.5 44% 75.9 0.0
05 23:30 Calm 16.09 Fair CLR 6.5 -5.9 41% 75.9 0.0
05 23:15 Calm 16.09 Fair CLR 7.1 -6.4 38% 75.9 0.0
05 22:55 Calm 16.09 Fair CLR 7.2 -6.6 37% 75.9 0.0
05 22:35 Calm 16.09 Fair CLR 7.2 -6.3 38% 75.9 0.0
05 22:15 Calm 16.09 Fair CLR 7.5 -6.1 38% 75.87 0.0
05 21:35 N 9 16.09 Fair CLR 8.2 -5.4 38% 7 75.87 0.0
05 21:15 N 13 16.09 Fair CLR 8.6 -5.9 36% 7 75.84 0.0
05 20:55 N 13 16.09 Fair CLR 9.1 -5.8 35% 7 75.82 0.0
05 20:35 NW 11 16.09 Fair CLR 9.2 -6 34% 8 75.79 0.0
05 20:15 N 15 G 26 16.09 Fair CLR 9.8 -6.7 31% 8 75.77 0.0
05 19:55 N 17 16.09 Fair CLR 10.2 -6.5 31% 75.74 0.0
05 19:35 NW 19 G 28 11.27 Fair CLR 11 -7.2 27% 75.74 0.0
05 19:15 N 15 16.09 Fair CLR 11.3 -6.6 28% 75.72 0.0
05 18:55 N 17 6.44 Fair CLR 11.6 -6.9 14.6 11.6 27% 75.72 0.0
05 18:35 N 19 11.27 Fair CLR 12 -7.2 26% 75.72 0.0
05 18:15 NW 15 16.09 Fair CLR 12.2 -7.2 25% 75.69 0.0
05 17:55 NW 13 16.09 Fair CLR 12.5 -7.2 25% 75.72 0.0
05 17:35 NW 22 G 31 11.27 Fair CLR 12.5 -7.5 24% 75.72 0.0
05 17:15 NW 24 G 30 16.09 Fair CLR 12.8 -7.4 24% 75.69 0.0
05 16:55 NW 20 G 33 16.09 Fair CLR 13.2 -7.4 23% 75.72 0.0
05 16:35 NW 24 G 31 16.09 Fair CLR 14 -7.2 22% 75.69 0.0
05 16:15 W 22 G 37 16.09 Fair CLR 14.2 -8 21% 75.69 0.0
05 15:55 W 17 G 28 16.09 Fair CLR 14.1 -7.9 21% 75.69 0.0
05 15:35 W 26 G 39 16.09 Partly Cloudy SCT070 14.6 -7.3 21% 75.74 0.0
05 15:10 W 26 G 43 16.09 Fair CLR 14 -7.4 22% 75.74 0.0
05 14:55 W 30 G 37 16.09 Partly Cloudy SCT070 14.1 -7.9 21% 75.74 0.0
Date Time (cdt) Wind (kph) Vis. (km) Weather Sky Cond. Air Dwpt Max. Min. Relative Humidity Wind Chill (°C) Heat Index (°C) altimeter (cm) sea level (mb) 1 hr 3 hr 6 hr
6 hour
Temperature (ºC) Pressure Precipitation (cm)